sensor_id;sensor_type;location;lat;lon;timestamp;temperature;humidity
12015;DHT22;6066;48.138;16.402;2023-12-20T00:01:35;-1.80;99.90
12015;DHT22;6066;48.138;16.402;2023-12-20T00:04:03;-1.80;99.90
12015;DHT22;6066;48.138;16.402;2023-12-20T00:06:30;-1.90;99.90
12015;DHT22;6066;48.138;16.402;2023-12-20T00:08:57;-1.90;99.90
12015;DHT22;6066;48.138;16.402;2023-12-20T00:11:24;-1.90;99.90
12015;DHT22;6066;48.138;16.402;2023-12-20T00:13:51;-1.90;99.90
12015;DHT22;6066;48.138;16.402;2023-12-20T00:16:17;-2.00;99.90
12015;DHT22;6066;48.138;16.402;2023-12-20T00:18:44;-1.90;99.90
12015;DHT22;6066;48.138;16.402;2023-12-20T00:21:12;-1.90;99.90
12015;DHT22;6066;48.138;16.402;2023-12-20T00:23:39;-1.90;99.90
12015;DHT22;6066;48.138;16.402;2023-12-20T00:26:06;-1.90;99.90
12015;DHT22;6066;48.138;16.402;2023-12-20T00:28:33;-1.90;99.90
12015;DHT22;6066;48.138;16.402;2023-12-20T00:31:00;-1.90;99.90
12015;DHT22;6066;48.138;16.402;2023-12-20T00:33:27;-2.00;99.90
12015;DHT22;6066;48.138;16.402;2023-12-20T00:35:54;-1.90;99.90
12015;DHT22;6066;48.138;16.402;2023-12-20T00:38:22;-1.80;99.90
12015;DHT22;6066;48.138;16.402;2023-12-20T00:40:49;-1.90;99.90
12015;DHT22;6066;48.138;16.402;2023-12-20T00:43:16;-1.80;99.90
12015;DHT22;6066;48.138;16.402;2023-12-20T00:45:42;-1.80;99.90
12015;DHT22;6066;48.138;16.402;2023-12-20T00:48:09;-1.90;99.90
12015;DHT22;6066;48.138;16.402;2023-12-20T00:50:36;-1.90;99.90
12015;DHT22;6066;48.138;16.402;2023-12-20T00:53:03;-1.90;99.90
12015;DHT22;6066;48.138;16.402;2023-12-20T00:55:32;-1.90;99.90
12015;DHT22;6066;48.138;16.402;2023-12-20T00:57:59;-2.00;99.90
12015;DHT22;6066;48.138;16.402;2023-12-20T01:00:26;-2.00;99.90
12015;DHT22;6066;48.138;16.402;2023-12-20T01:02:53;-2.00;99.90
12015;DHT22;6066;48.138;16.402;2023-12-20T01:05:19;-2.00;99.90
12015;DHT22;6066;48.138;16.402;2023-12-20T01:07:48;-2.10;99.90
12015;DHT22;6066;48.138;16.402;2023-12-20T01:10:15;-2.10;99.90
12015;DHT22;6066;48.138;16.402;2023-12-20T01:12:44;-2.10;99.90
12015;DHT22;6066;48.138;16.402;2023-12-20T01:15:11;-2.10;99.90
12015;DHT22;6066;48.138;16.402;2023-12-20T01:17:38;-2.20;99.90
12015;DHT22;6066;48.138;16.402;2023-12-20T01:20:05;-2.10;99.90
12015;DHT22;6066;48.138;16.402;2023-12-20T01:22:32;-2.10;99.90
12015;DHT22;6066;48.138;16.402;2023-12-20T01:25:01;-2.10;99.90
12015;DHT22;6066;48.138;16.402;2023-12-20T01:27:27;-2.10;99.90
12015;DHT22;6066;48.138;16.402;2023-12-20T01:29:56;-2.00;99.90
12015;DHT22;6066;48.138;16.402;2023-12-20T01:32:23;-2.00;99.90
12015;DHT22;6066;48.138;16.402;2023-12-20T01:34:49;-2.00;99.90
12015;DHT22;6066;48.138;16.402;2023-12-20T01:37:16;-2.00;99.90
12015;DHT22;6066;48.138;16.402;2023-12-20T01:39:43;-2.10;99.90
12015;DHT22;6066;48.138;16.402;2023-12-20T01:42:10;-2.10;99.90
12015;DHT22;6066;48.138;16.402;2023-12-20T01:44:37;-2.10;99.90
12015;DHT22;6066;48.138;16.402;2023-12-20T01:47:05;-2.10;99.90
12015;DHT22;6066;48.138;16.402;2023-12-20T01:49:32;-2.10;99.90
12015;DHT22;6066;48.138;16.402;2023-12-20T01:51:59;-2.10;99.90
12015;DHT22;6066;48.138;16.402;2023-12-20T01:54:26;-2.20;99.90
12015;DHT22;6066;48.138;16.402;2023-12-20T01:56:53;-2.20;99.90
12015;DHT22;6066;48.138;16.402;2023-12-20T01:59:20;-2.30;99.90
12015;DHT22;6066;48.138;16.402;2023-12-20T02:01:47;-2.30;99.90
12015;DHT22;6066;48.138;16.402;2023-12-20T02:04:15;-2.40;99.90
12015;DHT22;6066;48.138;16.402;2023-12-20T02:06:42;-2.50;99.90
12015;DHT22;6066;48.138;16.402;2023-12-20T02:09:09;-2.50;99.90
12015;DHT22;6066;48.138;16.402;2023-12-20T02:11:36;-2.60;99.90
12015;DHT22;6066;48.138;16.402;2023-12-20T02:14:02;-2.60;99.90
12015;DHT22;6066;48.138;16.402;2023-12-20T02:16:29;-2.60;99.90
12015;DHT22;6066;48.138;16.402;2023-12-20T02:18:56;-2.70;99.90
12015;DHT22;6066;48.138;16.402;2023-12-20T02:21:25;-2.70;99.90
12015;DHT22;6066;48.138;16.402;2023-12-20T02:23:58;-2.70;99.90
12015;DHT22;6066;48.138;16.402;2023-12-20T02:26:25;-2.70;99.90
12015;DHT22;6066;48.138;16.402;2023-12-20T02:28:51;-2.70;99.90
12015;DHT22;6066;48.138;16.402;2023-12-20T02:31:20;-2.70;99.90
12015;DHT22;6066;48.138;16.402;2023-12-20T02:33:47;-2.60;99.90
12015;DHT22;6066;48.138;16.402;2023-12-20T02:36:14;-2.60;99.90
12015;DHT22;6066;48.138;16.402;2023-12-20T02:38:42;-2.60;99.90
12015;DHT22;6066;48.138;16.402;2023-12-20T02:41:09;-2.60;99.90
12015;DHT22;6066;48.138;16.402;2023-12-20T02:43:35;-2.60;99.90
12015;DHT22;6066;48.138;16.402;2023-12-20T02:46:02;-2.60;99.90
12015;DHT22;6066;48.138;16.402;2023-12-20T02:48:29;-2.60;99.90
12015;DHT22;6066;48.138;16.402;2023-12-20T02:50:56;-2.60;99.90
12015;DHT22;6066;48.138;16.402;2023-12-20T02:53:23;-2.60;99.90
12015;DHT22;6066;48.138;16.402;2023-12-20T02:55:51;-2.60;99.90
12015;DHT22;6066;48.138;16.402;2023-12-20T02:58:18;-2.60;99.90
12015;DHT22;6066;48.138;16.402;2023-12-20T03:00:45;-2.60;99.90
12015;DHT22;6066;48.138;16.402;2023-12-20T03:03:12;-2.50;99.90
12015;DHT22;6066;48.138;16.402;2023-12-20T03:05:38;-2.50;99.90
12015;DHT22;6066;48.138;16.402;2023-12-20T03:08:05;-2.40;99.90
12015;DHT22;6066;48.138;16.402;2023-12-20T03:10:32;-2.40;99.90
12015;DHT22;6066;48.138;16.402;2023-12-20T03:13:00;-2.40;99.90
12015;DHT22;6066;48.138;16.402;2023-12-20T03:15:27;-2.30;99.90
12015;DHT22;6066;48.138;16.402;2023-12-20T03:17:54;-2.40;99.90
12015;DHT22;6066;48.138;16.402;2023-12-20T03:20:21;-2.30;99.90
12015;DHT22;6066;48.138;16.402;2023-12-20T03:22:48;-2.30;99.90
12015;DHT22;6066;48.138;16.402;2023-12-20T03:25:14;-2.20;99.90
12015;DHT22;6066;48.138;16.402;2023-12-20T03:27:41;-2.20;99.90
12015;DHT22;6066;48.138;16.402;2023-12-20T03:30:10;-2.20;99.90
12015;DHT22;6066;48.138;16.402;2023-12-20T03:32:37;-2.30;99.90
12015;DHT22;6066;48.138;16.402;2023-12-20T03:35:05;-2.40;99.90
12015;DHT22;6066;48.138;16.402;2023-12-20T03:37:32;-2.40;99.90
12015;DHT22;6066;48.138;16.402;2023-12-20T03:39:59;-2.50;99.90
12015;DHT22;6066;48.138;16.402;2023-12-20T03:42:25;-2.50;99.90
12015;DHT22;6066;48.138;16.402;2023-12-20T03:44:52;-2.50;99.90
12015;DHT22;6066;48.138;16.402;2023-12-20T03:47:21;-2.50;99.90
12015;DHT22;6066;48.138;16.402;2023-12-20T03:49:47;-2.50;99.90
12015;DHT22;6066;48.138;16.402;2023-12-20T03:52:14;-2.60;99.90
12015;DHT22;6066;48.138;16.402;2023-12-20T03:54:41;-2.60;99.90
12015;DHT22;6066;48.138;16.402;2023-12-20T03:57:08;-2.60;99.90
12015;DHT22;6066;48.138;16.402;2023-12-20T03:59:35;-2.50;99.90
12015;DHT22;6066;48.138;16.402;2023-12-20T04:02:02;-2.60;99.90
12015;DHT22;6066;48.138;16.402;2023-12-20T04:04:31;-2.70;99.90
12015;DHT22;6066;48.138;16.402;2023-12-20T04:06:57;-2.70;99.90
12015;DHT22;6066;48.138;16.402;2023-12-20T04:09:24;-2.80;99.90
12015;DHT22;6066;48.138;16.402;2023-12-20T04:11:51;-2.70;99.90
12015;DHT22;6066;48.138;16.402;2023-12-20T04:14:18;-2.80;99.90
12015;DHT22;6066;48.138;16.402;2023-12-20T04:16:45;-2.80;99.90
12015;DHT22;6066;48.138;16.402;2023-12-20T04:19:11;-2.80;99.90
12015;DHT22;6066;48.138;16.402;2023-12-20T04:21:40;-2.80;99.90
12015;DHT22;6066;48.138;16.402;2023-12-20T04:24:06;-2.80;99.90
12015;DHT22;6066;48.138;16.402;2023-12-20T04:26:33;-2.80;99.90
12015;DHT22;6066;48.138;16.402;2023-12-20T04:29:00;-2.80;99.90
12015;DHT22;6066;48.138;16.402;2023-12-20T04:31:27;-2.80;99.90
12015;DHT22;6066;48.138;16.402;2023-12-20T04:33:54;-2.80;99.90
12015;DHT22;6066;48.138;16.402;2023-12-20T04:36:21;-2.80;99.90
12015;DHT22;6066;48.138;16.402;2023-12-20T04:38:49;-2.70;99.90
12015;DHT22;6066;48.138;16.402;2023-12-20T04:41:16;-2.80;99.90
12015;DHT22;6066;48.138;16.402;2023-12-20T04:43:44;-2.80;99.90
12015;DHT22;6066;48.138;16.402;2023-12-20T04:46:11;-2.80;99.90
12015;DHT22;6066;48.138;16.402;2023-12-20T04:48:37;-2.80;99.90
12015;DHT22;6066;48.138;16.402;2023-12-20T04:51:04;-2.70;99.90
12015;DHT22;6066;48.138;16.402;2023-12-20T04:53:31;-2.70;99.90
12015;DHT22;6066;48.138;16.402;2023-12-20T04:55:59;-2.60;99.90
12015;DHT22;6066;48.138;16.402;2023-12-20T04:58:29;-2.60;99.90
12015;DHT22;6066;48.138;16.402;2023-12-20T05:00:56;-2.50;99.90
12015;DHT22;6066;48.138;16.402;2023-12-20T05:03:23;-2.40;99.90
12015;DHT22;6066;48.138;16.402;2023-12-20T05:05:50;-2.40;99.90
12015;DHT22;6066;48.138;16.402;2023-12-20T05:08:17;-2.30;99.90
12015;DHT22;6066;48.138;16.402;2023-12-20T05:10:43;-2.30;99.90
12015;DHT22;6066;48.138;16.402;2023-12-20T05:13:12;-2.30;99.90
12015;DHT22;6066;48.138;16.402;2023-12-20T05:15:38;-2.30;99.90
12015;DHT22;6066;48.138;16.402;2023-12-20T05:18:05;-2.40;99.90
12015;DHT22;6066;48.138;16.402;2023-12-20T05:20:32;-2.40;99.90
12015;DHT22;6066;48.138;16.402;2023-12-20T05:22:59;-2.40;99.90
12015;DHT22;6066;48.138;16.402;2023-12-20T05:25:26;-2.40;99.90
12015;DHT22;6066;48.138;16.402;2023-12-20T05:27:53;-2.40;99.90
12015;DHT22;6066;48.138;16.402;2023-12-20T05:30:23;-2.50;99.90
12015;DHT22;6066;48.138;16.402;2023-12-20T05:32:51;-2.40;99.90
12015;DHT22;6066;48.138;16.402;2023-12-20T05:35:18;-2.40;99.90
12015;DHT22;6066;48.138;16.402;2023-12-20T05:37:47;-2.40;99.90
12015;DHT22;6066;48.138;16.402;2023-12-20T05:40:14;-2.30;99.90
12015;DHT22;6066;48.138;16.402;2023-12-20T05:42:41;-2.30;99.90
12015;DHT22;6066;48.138;16.402;2023-12-20T05:45:09;-2.30;99.90
12015;DHT22;6066;48.138;16.402;2023-12-20T05:47:37;-2.30;99.90
12015;DHT22;6066;48.138;16.402;2023-12-20T05:50:07;-2.30;99.90
12015;DHT22;6066;48.138;16.402;2023-12-20T05:52:34;-2.30;99.90
12015;DHT22;6066;48.138;16.402;2023-12-20T05:55:01;-2.40;99.90
12015;DHT22;6066;48.138;16.402;2023-12-20T05:57:28;-2.40;99.90
12015;DHT22;6066;48.138;16.402;2023-12-20T05:59:57;-2.40;99.90
12015;DHT22;6066;48.138;16.402;2023-12-20T06:02:24;-2.30;99.90
12015;DHT22;6066;48.138;16.402;2023-12-20T06:04:54;-2.30;99.90
12015;DHT22;6066;48.138;16.402;2023-12-20T06:07:35;-2.30;99.90
12015;DHT22;6066;48.138;16.402;2023-12-20T06:10:03;-2.20;99.90
12015;DHT22;6066;48.138;16.402;2023-12-20T06:13:01;-2.20;99.90
12015;DHT22;6066;48.138;16.402;2023-12-20T06:15:24;-2.10;99.90
12015;DHT22;6066;48.138;16.402;2023-12-20T06:17:55;-2.10;99.90
12015;DHT22;6066;48.138;16.402;2023-12-20T06:20:23;-2.00;99.90
12015;DHT22;6066;48.138;16.402;2023-12-20T06:22:50;-2.00;99.90
12015;DHT22;6066;48.138;16.402;2023-12-20T06:25:17;-1.90;99.90
12015;DHT22;6066;48.138;16.402;2023-12-20T06:27:55;-1.90;99.90
12015;DHT22;6066;48.138;16.402;2023-12-20T06:30:21;-1.80;99.90
12015;DHT22;6066;48.138;16.402;2023-12-20T06:32:50;-1.80;99.90
12015;DHT22;6066;48.138;16.402;2023-12-20T06:35:18;-1.70;99.90
12015;DHT22;6066;48.138;16.402;2023-12-20T06:37:46;-1.60;99.90
12015;DHT22;6066;48.138;16.402;2023-12-20T06:40:13;-1.60;99.90
12015;DHT22;6066;48.138;16.402;2023-12-20T06:42:40;-1.50;99.90
12015;DHT22;6066;48.138;16.402;2023-12-20T06:45:07;-1.40;99.90
12015;DHT22;6066;48.138;16.402;2023-12-20T06:47:34;-1.40;99.90
12015;DHT22;6066;48.138;16.402;2023-12-20T06:50:01;-1.30;99.90
12015;DHT22;6066;48.138;16.402;2023-12-20T06:52:27;-1.30;99.90
12015;DHT22;6066;48.138;16.402;2023-12-20T06:54:56;-1.20;99.90
12015;DHT22;6066;48.138;16.402;2023-12-20T06:57:22;-1.10;99.90
12015;DHT22;6066;48.138;16.402;2023-12-20T06:59:51;-1.00;99.90
12015;DHT22;6066;48.138;16.402;2023-12-20T07:02:18;-0.90;99.90
12015;DHT22;6066;48.138;16.402;2023-12-20T07:04:45;-0.70;99.90
12015;DHT22;6066;48.138;16.402;2023-12-20T07:07:12;-0.40;99.90
12015;DHT22;6066;48.138;16.402;2023-12-20T07:09:40;0.10;99.90
12015;DHT22;6066;48.138;16.402;2023-12-20T07:12:09;0.70;99.90
12015;DHT22;6066;48.138;16.402;2023-12-20T07:14:36;1.20;99.90
12015;DHT22;6066;48.138;16.402;2023-12-20T07:17:03;1.80;99.90
12015;DHT22;6066;48.138;16.402;2023-12-20T07:19:30;2.00;99.90
12015;DHT22;6066;48.138;16.402;2023-12-20T07:21:59;2.20;99.90
12015;DHT22;6066;48.138;16.402;2023-12-20T07:24:29;2.40;99.90
12015;DHT22;6066;48.138;16.402;2023-12-20T07:26:56;2.70;99.90
12015;DHT22;6066;48.138;16.402;2023-12-20T07:29:24;2.90;99.90
12015;DHT22;6066;48.138;16.402;2023-12-20T07:31:52;3.20;99.90
12015;DHT22;6066;48.138;16.402;2023-12-20T07:34:19;3.40;99.90
12015;DHT22;6066;48.138;16.402;2023-12-20T07:36:48;3.50;99.90
12015;DHT22;6066;48.138;16.402;2023-12-20T07:39:15;3.60;99.90
12015;DHT22;6066;48.138;16.402;2023-12-20T07:41:41;3.70;99.90
12015;DHT22;6066;48.138;16.402;2023-12-20T07:44:08;3.90;99.90
12015;DHT22;6066;48.138;16.402;2023-12-20T07:46:36;4.20;99.90
12015;DHT22;6066;48.138;16.402;2023-12-20T07:49:03;4.50;99.90
12015;DHT22;6066;48.138;16.402;2023-12-20T07:51:30;4.80;99.90
12015;DHT22;6066;48.138;16.402;2023-12-20T07:53:57;4.90;99.90
12015;DHT22;6066;48.138;16.402;2023-12-20T07:56:24;5.00;99.90
12015;DHT22;6066;48.138;16.402;2023-12-20T07:58:51;5.20;99.90
12015;DHT22;6066;48.138;16.402;2023-12-20T08:01:17;5.50;99.90
12015;DHT22;6066;48.138;16.402;2023-12-20T08:03:46;5.50;99.90
12015;DHT22;6066;48.138;16.402;2023-12-20T08:06:14;5.50;99.90
12015;DHT22;6066;48.138;16.402;2023-12-20T08:08:42;5.80;99.90
12015;DHT22;6066;48.138;16.402;2023-12-20T08:11:09;5.80;99.90
12015;DHT22;6066;48.138;16.402;2023-12-20T08:13:36;5.80;99.90
12015;DHT22;6066;48.138;16.402;2023-12-20T08:16:03;5.90;99.90
12015;DHT22;6066;48.138;16.402;2023-12-20T08:18:30;5.90;99.90
12015;DHT22;6066;48.138;16.402;2023-12-20T08:20:58;6.00;99.90
12015;DHT22;6066;48.138;16.402;2023-12-20T08:23:25;6.20;99.90
12015;DHT22;6066;48.138;16.402;2023-12-20T08:25:52;6.20;99.90
12015;DHT22;6066;48.138;16.402;2023-12-20T08:28:19;6.20;99.90
12015;DHT22;6066;48.138;16.402;2023-12-20T08:30:45;6.40;99.90
12015;DHT22;6066;48.138;16.402;2023-12-20T08:33:12;6.30;99.90
12015;DHT22;6066;48.138;16.402;2023-12-20T08:35:39;6.30;99.90
12015;DHT22;6066;48.138;16.402;2023-12-20T08:38:07;6.40;99.90
12015;DHT22;6066;48.138;16.402;2023-12-20T08:40:34;6.50;99.90
12015;DHT22;6066;48.138;16.402;2023-12-20T08:43:01;6.50;99.90
12015;DHT22;6066;48.138;16.402;2023-12-20T08:45:27;6.60;99.90
12015;DHT22;6066;48.138;16.402;2023-12-20T08:47:54;6.60;99.90
12015;DHT22;6066;48.138;16.402;2023-12-20T08:50:20;6.70;99.90
12015;DHT22;6066;48.138;16.402;2023-12-20T08:52:47;6.70;99.90
12015;DHT22;6066;48.138;16.402;2023-12-20T08:55:15;6.70;99.90
12015;DHT22;6066;48.138;16.402;2023-12-20T08:57:43;6.70;99.90
12015;DHT22;6066;48.138;16.402;2023-12-20T09:00:11;6.70;99.90
12015;DHT22;6066;48.138;16.402;2023-12-20T09:02:37;6.70;99.90
12015;DHT22;6066;48.138;16.402;2023-12-20T09:05:05;6.80;99.90
12015;DHT22;6066;48.138;16.402;2023-12-20T09:07:32;6.80;99.90
12015;DHT22;6066;48.138;16.402;2023-12-20T09:09:58;6.70;99.90
12015;DHT22;6066;48.138;16.402;2023-12-20T09:12:27;6.80;99.90
12015;DHT22;6066;48.138;16.402;2023-12-20T09:14:54;6.70;99.90
12015;DHT22;6066;48.138;16.402;2023-12-20T09:17:20;6.80;99.90
12015;DHT22;6066;48.138;16.402;2023-12-20T09:19:48;6.80;99.90
12015;DHT22;6066;48.138;16.402;2023-12-20T09:22:15;6.80;99.90
12015;DHT22;6066;48.138;16.402;2023-12-20T09:24:42;6.90;99.90
12015;DHT22;6066;48.138;16.402;2023-12-20T09:27:10;6.90;99.90
12015;DHT22;6066;48.138;16.402;2023-12-20T09:29:38;6.90;99.90
12015;DHT22;6066;48.138;16.402;2023-12-20T09:32:05;6.90;99.90
12015;DHT22;6066;48.138;16.402;2023-12-20T09:34:32;7.00;99.90
12015;DHT22;6066;48.138;16.402;2023-12-20T09:36:59;6.90;99.90
12015;DHT22;6066;48.138;16.402;2023-12-20T09:39:25;6.90;99.90
12015;DHT22;6066;48.138;16.402;2023-12-20T09:41:57;7.00;99.90
12015;DHT22;6066;48.138;16.402;2023-12-20T09:44:26;6.90;99.90
12015;DHT22;6066;48.138;16.402;2023-12-20T09:46:54;6.80;99.90
12015;DHT22;6066;48.138;16.402;2023-12-20T09:49:21;6.80;99.90
12015;DHT22;6066;48.138;16.402;2023-12-20T09:51:49;6.80;99.90
12015;DHT22;6066;48.138;16.402;2023-12-20T09:54:17;6.80;99.90
12015;DHT22;6066;48.138;16.402;2023-12-20T09:56:44;6.70;99.90
12015;DHT22;6066;48.138;16.402;2023-12-20T09:59:11;6.70;99.90
12015;DHT22;6066;48.138;16.402;2023-12-20T10:01:38;6.70;99.90
12015;DHT22;6066;48.138;16.402;2023-12-20T10:04:07;6.60;99.90
12015;DHT22;6066;48.138;16.402;2023-12-20T10:06:37;6.60;99.90
12015;DHT22;6066;48.138;16.402;2023-12-20T10:09:04;6.40;99.90
12015;DHT22;6066;48.138;16.402;2023-12-20T10:11:31;6.30;99.90
12015;DHT22;6066;48.138;16.402;2023-12-20T10:13:59;6.20;99.90
12015;DHT22;6066;48.138;16.402;2023-12-20T10:16:26;6.20;99.90
12015;DHT22;6066;48.138;16.402;2023-12-20T10:18:53;6.20;99.90
12015;DHT22;6066;48.138;16.402;2023-12-20T10:21:21;6.20;99.90
12015;DHT22;6066;48.138;16.402;2023-12-20T10:23:49;6.10;99.90
12015;DHT22;6066;48.138;16.402;2023-12-20T10:26:19;6.00;99.90
12015;DHT22;6066;48.138;16.402;2023-12-20T10:28:45;6.00;99.90
12015;DHT22;6066;48.138;16.402;2023-12-20T10:31:25;5.90;99.90
12015;DHT22;6066;48.138;16.402;2023-12-20T10:33:52;5.90;99.90
12015;DHT22;6066;48.138;16.402;2023-12-20T10:36:18;5.80;99.90
12015;DHT22;6066;48.138;16.402;2023-12-20T10:38:47;5.80;99.90
12015;DHT22;6066;48.138;16.402;2023-12-20T10:41:15;5.80;99.90
12015;DHT22;6066;48.138;16.402;2023-12-20T10:43:43;6.00;99.90
12015;DHT22;6066;48.138;16.402;2023-12-20T10:46:11;6.10;99.90
12015;DHT22;6066;48.138;16.402;2023-12-20T10:48:39;6.10;99.90
12015;DHT22;6066;48.138;16.402;2023-12-20T10:51:06;6.10;99.90
12015;DHT22;6066;48.138;16.402;2023-12-20T10:53:33;6.20;99.90
12015;DHT22;6066;48.138;16.402;2023-12-20T10:56:03;6.20;99.90
12015;DHT22;6066;48.138;16.402;2023-12-20T10:58:31;6.30;99.90
12015;DHT22;6066;48.138;16.402;2023-12-20T11:00:59;6.20;99.90
12015;DHT22;6066;48.138;16.402;2023-12-20T11:03:27;6.20;99.90
12015;DHT22;6066;48.138;16.402;2023-12-20T11:05:57;6.20;99.90
12015;DHT22;6066;48.138;16.402;2023-12-20T11:08:27;6.30;99.90
12015;DHT22;6066;48.138;16.402;2023-12-20T11:10:55;6.30;99.90
12015;DHT22;6066;48.138;16.402;2023-12-20T11:13:26;6.30;99.90
12015;DHT22;6066;48.138;16.402;2023-12-20T11:15:54;6.30;99.90
12015;DHT22;6066;48.138;16.402;2023-12-20T11:18:21;6.30;99.90
12015;DHT22;6066;48.138;16.402;2023-12-20T11:20:54;6.30;99.90
12015;DHT22;6066;48.138;16.402;2023-12-20T11:23:21;6.40;99.90
12015;DHT22;6066;48.138;16.402;2023-12-20T11:25:48;6.30;99.90
12015;DHT22;6066;48.138;16.402;2023-12-20T11:28:15;6.40;99.90
12015;DHT22;6066;48.138;16.402;2023-12-20T11:30:48;6.50;99.90
12015;DHT22;6066;48.138;16.402;2023-12-20T11:33:15;6.50;99.90
12015;DHT22;6066;48.138;16.402;2023-12-20T11:35:42;6.50;99.90
12015;DHT22;6066;48.138;16.402;2023-12-20T11:38:09;6.50;99.90
12015;DHT22;6066;48.138;16.402;2023-12-20T11:40:36;6.60;99.90
12015;DHT22;6066;48.138;16.402;2023-12-20T11:43:03;6.60;99.90
12015;DHT22;6066;48.138;16.402;2023-12-20T11:45:30;6.70;99.90
12015;DHT22;6066;48.138;16.402;2023-12-20T11:47:59;6.70;99.90
12015;DHT22;6066;48.138;16.402;2023-12-20T11:50:25;6.70;99.90
12015;DHT22;6066;48.138;16.402;2023-12-20T11:52:53;6.80;99.90
12015;DHT22;6066;48.138;16.402;2023-12-20T11:55:20;6.80;99.90
12015;DHT22;6066;48.138;16.402;2023-12-20T11:57:47;6.80;99.90
12015;DHT22;6066;48.138;16.402;2023-12-20T12:00:14;6.80;99.90
12015;DHT22;6066;48.138;16.402;2023-12-20T12:02:41;6.90;99.90
12015;DHT22;6066;48.138;16.402;2023-12-20T12:05:11;7.00;99.90
12015;DHT22;6066;48.138;16.402;2023-12-20T12:07:37;7.10;99.90
12015;DHT22;6066;48.138;16.402;2023-12-20T12:10:05;7.10;99.90
12015;DHT22;6066;48.138;16.402;2023-12-20T12:12:33;7.20;99.90
12015;DHT22;6066;48.138;16.402;2023-12-20T12:15:00;7.20;99.90
12015;DHT22;6066;48.138;16.402;2023-12-20T12:17:28;7.30;99.90
12015;DHT22;6066;48.138;16.402;2023-12-20T12:20:01;7.40;99.90
12015;DHT22;6066;48.138;16.402;2023-12-20T12:22:30;7.50;99.90
12015;DHT22;6066;48.138;16.402;2023-12-20T12:24:59;7.60;99.90
12015;DHT22;6066;48.138;16.402;2023-12-20T12:27:27;7.60;99.90
12015;DHT22;6066;48.138;16.402;2023-12-20T12:30:00;7.50;99.90
12015;DHT22;6066;48.138;16.402;2023-12-20T12:32:27;7.60;99.90
12015;DHT22;6066;48.138;16.402;2023-12-20T12:34:54;7.60;99.90
12015;DHT22;6066;48.138;16.402;2023-12-20T12:37:20;7.60;99.90
12015;DHT22;6066;48.138;16.402;2023-12-20T12:39:52;7.60;99.90
12015;DHT22;6066;48.138;16.402;2023-12-20T12:42:19;7.50;99.90
12015;DHT22;6066;48.138;16.402;2023-12-20T12:44:47;7.50;99.90
12015;DHT22;6066;48.138;16.402;2023-12-20T12:47:14;7.60;99.90
12015;DHT22;6066;48.138;16.402;2023-12-20T12:49:40;7.50;99.90
12015;DHT22;6066;48.138;16.402;2023-12-20T12:52:07;7.40;99.90
12015;DHT22;6066;48.138;16.402;2023-12-20T12:54:34;7.50;99.90
12015;DHT22;6066;48.138;16.402;2023-12-20T12:57:03;7.40;99.90
12015;DHT22;6066;48.138;16.402;2023-12-20T12:59:30;7.50;99.90
12015;DHT22;6066;48.138;16.402;2023-12-20T13:01:57;7.40;99.90
12015;DHT22;6066;48.138;16.402;2023-12-20T13:04:24;7.40;99.90
12015;DHT22;6066;48.138;16.402;2023-12-20T13:06:51;7.40;99.90
12015;DHT22;6066;48.138;16.402;2023-12-20T13:09:18;7.40;99.90
12015;DHT22;6066;48.138;16.402;2023-12-20T13:11:45;7.40;99.90
12015;DHT22;6066;48.138;16.402;2023-12-20T13:14:13;7.30;99.90
12015;DHT22;6066;48.138;16.402;2023-12-20T13:16:40;7.30;99.90
12015;DHT22;6066;48.138;16.402;2023-12-20T13:19:07;7.30;99.90
12015;DHT22;6066;48.138;16.402;2023-12-20T13:21:35;7.30;99.90
12015;DHT22;6066;48.138;16.402;2023-12-20T13:24:02;7.30;99.90
12015;DHT22;6066;48.138;16.402;2023-12-20T13:26:29;7.30;99.90
12015;DHT22;6066;48.138;16.402;2023-12-20T13:28:55;7.30;99.90
12015;DHT22;6066;48.138;16.402;2023-12-20T13:31:24;7.30;99.90
12015;DHT22;6066;48.138;16.402;2023-12-20T13:33:50;7.20;99.90
12015;DHT22;6066;48.138;16.402;2023-12-20T13:36:17;7.20;99.90
12015;DHT22;6066;48.138;16.402;2023-12-20T13:38:44;7.10;99.90
12015;DHT22;6066;48.138;16.402;2023-12-20T13:41:11;7.10;99.90
12015;DHT22;6066;48.138;16.402;2023-12-20T13:43:38;7.10;99.90
12015;DHT22;6066;48.138;16.402;2023-12-20T13:46:05;7.10;99.90
12015;DHT22;6066;48.138;16.402;2023-12-20T13:48:33;7.00;99.90
12015;DHT22;6066;48.138;16.402;2023-12-20T13:51:00;7.00;99.90
12015;DHT22;6066;48.138;16.402;2023-12-20T13:53:28;6.90;99.90
12015;DHT22;6066;48.138;16.402;2023-12-20T13:55:55;6.90;99.90
12015;DHT22;6066;48.138;16.402;2023-12-20T13:58:21;6.80;99.90
12015;DHT22;6066;48.138;16.402;2023-12-20T14:00:48;6.80;99.90
12015;DHT22;6066;48.138;16.402;2023-12-20T14:03:15;6.90;99.90
12015;DHT22;6066;48.138;16.402;2023-12-20T14:05:43;6.80;99.90
12015;DHT22;6066;48.138;16.402;2023-12-20T14:08:10;6.70;99.90
12015;DHT22;6066;48.138;16.402;2023-12-20T14:10:37;6.70;99.90
12015;DHT22;6066;48.138;16.402;2023-12-20T14:13:04;6.70;99.90
12015;DHT22;6066;48.138;16.402;2023-12-20T14:15:31;6.60;99.90
12015;DHT22;6066;48.138;16.402;2023-12-20T14:18:03;6.60;99.90
12015;DHT22;6066;48.138;16.402;2023-12-20T14:20:31;6.60;99.90
12015;DHT22;6066;48.138;16.402;2023-12-20T14:23:01;6.50;99.90
12015;DHT22;6066;48.138;16.402;2023-12-20T14:25:33;6.50;99.90
12015;DHT22;6066;48.138;16.402;2023-12-20T14:28:15;6.50;99.90
12015;DHT22;6066;48.138;16.402;2023-12-20T14:30:42;6.60;99.90
12015;DHT22;6066;48.138;16.402;2023-12-20T14:33:08;6.60;99.90
12015;DHT22;6066;48.138;16.402;2023-12-20T14:35:35;6.60;99.90
12015;DHT22;6066;48.138;16.402;2023-12-20T14:38:03;6.40;99.90
12015;DHT22;6066;48.138;16.402;2023-12-20T14:40:31;6.40;99.90
12015;DHT22;6066;48.138;16.402;2023-12-20T14:42:58;6.30;99.90
12015;DHT22;6066;48.138;16.402;2023-12-20T14:45:26;6.40;99.90
12015;DHT22;6066;48.138;16.402;2023-12-20T14:47:54;6.40;99.90
12015;DHT22;6066;48.138;16.402;2023-12-20T14:50:21;6.50;99.90
12015;DHT22;6066;48.138;16.402;2023-12-20T14:52:48;6.50;99.90
12015;DHT22;6066;48.138;16.402;2023-12-20T14:55:16;6.50;99.90
12015;DHT22;6066;48.138;16.402;2023-12-20T14:57:43;6.40;99.90
12015;DHT22;6066;48.138;16.402;2023-12-20T15:00:10;6.60;99.90
12015;DHT22;6066;48.138;16.402;2023-12-20T15:02:41;6.50;99.90
12015;DHT22;6066;48.138;16.402;2023-12-20T15:05:08;6.50;99.90
12015;DHT22;6066;48.138;16.402;2023-12-20T15:07:35;6.50;99.90
12015;DHT22;6066;48.138;16.402;2023-12-20T15:10:03;6.40;99.90
12015;DHT22;6066;48.138;16.402;2023-12-20T15:12:32;6.30;99.90
12015;DHT22;6066;48.138;16.402;2023-12-20T15:15:02;6.40;99.90
12015;DHT22;6066;48.138;16.402;2023-12-20T15:17:30;6.50;99.90
12015;DHT22;6066;48.138;16.402;2023-12-20T15:19:56;6.50;99.90
12015;DHT22;6066;48.138;16.402;2023-12-20T15:22:23;6.50;99.90
12015;DHT22;6066;48.138;16.402;2023-12-20T15:24:51;6.60;99.90
12015;DHT22;6066;48.138;16.402;2023-12-20T15:27:20;6.60;99.90
12015;DHT22;6066;48.138;16.402;2023-12-20T15:29:48;6.60;99.90
12015;DHT22;6066;48.138;16.402;2023-12-20T15:32:16;6.60;99.90
12015;DHT22;6066;48.138;16.402;2023-12-20T15:34:44;6.50;99.90
12015;DHT22;6066;48.138;16.402;2023-12-20T15:37:11;6.50;99.90
12015;DHT22;6066;48.138;16.402;2023-12-20T15:39:37;6.40;99.90
12015;DHT22;6066;48.138;16.402;2023-12-20T15:42:04;6.40;99.90